Terminal Aerodrome Forecast
Issued by NWS Shreveport, LA

Home | Current Version | Previous Version | Text Only | Print | Product List | Glossary On
Versions: 1 2 3 4 5 6 7 8 9 10 11 12 13 14 15 16
000
FTUS44 KSHV 190528
TAFELD
TAF
KELD 190528Z 1906/2006 35004KT 1/4SM FG VV001
      TEMPO 1908/1912 3SM BR OVC003
     FM191200 VRB03KT 3SM BR VCSH OVC003
      TEMPO 1912/1916 5SM -SHRA BR OVC005
     FM191600 VRB04KT P6SM VCSH OVC005
     FM191800 19005KT P6SM OVC010
     FM200000 17005KT P6SM SCT020 BKN250=

USA.gov is the U.S. government's official web portal to all federal, state and local government web resources and services.